• Join FlightAware (Why Join?)
  • Login
  • US Flag 
11:41PM EDT


 

Airport Tracker/Info


-or-


 

Live Flight TrackerFlight Track Log ✈ N103BL ✈ 17-Mar-2014 ✈ KSMS - KCHS

Flight Track Log - Related Links

Times and Time Zones

All times are in EDT time to prevent confusion due to time zone crossing. See the N103BL flight status page for this flight to view local times or setup timezone preferences in your user account.

Time Position Orientation Groundspeed Altitude Reporting Facility
EDT Latitude Longitude Course Direction KTS MPH feet Rate Location/Type
12:37PM 33.7322 -80.2837 166° South  Level Estimated
12:38PM 33.6886 -80.2697 165° South  Level FlightAware Approximate
12:39PM 33.6450 -80.2557 165° South  Level FlightAware Approximate
12:40PM 33.6014 -80.2417 165° South  Level FlightAware Approximate
12:41PM 33.5578 -80.2277 165° South  Level FlightAware Approximate
12:42PM 33.5143 -80.2138 165° South  Level FlightAware Approximate
12:43PM 33.4707 -80.1999 165° South  Level FlightAware Approximate
12:44PM 33.4271 -80.1859 165° South  Level FlightAware Approximate
12:45PM 33.3835 -80.1720 165° South  Level FlightAware Approximate
12:46PM 33.3395 -80.1600 167° South  Level Estimated
12:47PM 33.2957 -80.1473 166° South  Level FlightAware Approximate
12:48PM 33.2519 -80.1345 166° South  Level FlightAware Approximate
12:49PM 33.2080 -80.1217 166° South  Level FlightAware Approximate
12:50PM 33.1642 -80.1090 166° South  Level FlightAware Approximate
12:51PM 33.1201 -80.0976 170° South  Level Estimated
12:52PM 33.0757 -80.0885 170° South  Level FlightAware Approximate
12:53PM 33.0317 -80.0766 161° South  Level Estimated
12:54PM 32.9890 -80.0591 161° South  Level FlightAware Approximate
12:55PM 32.9446 -80.0500 170° South  Level Estimated
12:56PM 32.9006 -80.0380 167° South  Level FlightAware Approximate
12:57PM 32.8986 -80.0405 170° South  Level Estimated
12:58PM 32.8986 -80.0405 170° South  Level Estimated
12:59PM 32.8986 -80.0405 170° South  Level Estimated
01:00PM 32.8986 -80.0405 170° South  Level Estimated
01:01PM 32.8986 -80.0405 170° South  Level Estimated
01:02PM 32.8986 -80.0405 170° South  Level Estimated
01:03PM 32.8986 -80.0405 170° South  Level Estimated
01:04PM 32.8986 -80.0405 170° South  Level Estimated
01:05PM 32.8986 -80.0405 170° South  Level Estimated
01:06PM 32.8986 -80.0405 170° South  Level Estimated
01:07PM 32.8986 -80.0405 170° South  Level Estimated
01:08PM 32.8986 -80.0405 170° South  Level Estimated
01:09PM 32.8986 -80.0405 170° South  Level Estimated